Time;durP1;ratioP1;P1;durP2;ratioP2;P2;SDS_P1;SDS_P2;PMS_P1;PMS_P2;Temp;Humidity;BMP_temperature;BMP_pressure;BME280_temperature;BME280_humidity;BME280_pressure;Samples;Min_cycle;Max_cycle;Signal;HPM_P1;HPM_P2
2021/03/15 00:00:15;;;;;;;4.53;4.13;;;;;;;3.32;100.00;95991.53;4984764;28;20092;-58
2021/03/15 00:02:43;;;;;;;5.27;4.77;;;;;;;3.18;100.00;95989.09;5025337;28;20072;-58
2021/03/15 00:05:13;;;;;;;4.90;4.25;;;;;;;3.35;100.00;95988.69;4999887;28;20078;-52
2021/03/15 00:07:41;;;;;;;6.70;5.40;;;;;;;3.32;100.00;95996.72;5035333;28;20484;-55
2021/03/15 00:10:10;;;;;;;4.90;4.50;;;;;;;3.30;100.00;95988.19;4983002;28;20517;-57
2021/03/15 00:12:40;;;;;;;4.80;4.30;;;;;;;3.26;100.00;95995.38;5031242;28;20069;-58
2021/03/15 00:15:09;;;;;;;5.53;5.03;;;;;;;3.25;100.00;95993.75;5023686;28;20505;-59
2021/03/15 00:17:36;;;;;;;4.65;4.25;;;;;;;3.27;100.00;95991.03;5019306;28;20154;-56
2021/03/15 00:20:05;;;;;;;5.22;4.35;;;;;;;3.33;100.00;95995.78;5021061;28;20081;-57
2021/03/15 00:22:34;;;;;;;5.05;4.60;;;;;;;3.36;100.00;95992.13;4981446;28;20462;-58
2021/03/15 00:25:04;;;;;;;5.82;5.25;;;;;;;3.41;100.00;96000.47;5029258;28;20473;-58
2021/03/15 00:27:32;;;;;;;4.85;4.45;;;;;;;3.24;100.00;95997.28;4979880;28;20065;-58
2021/03/15 00:30:00;;;;;;;5.60;4.82;;;;;;;3.28;100.00;95982.25;5027730;28;20068;-59
2021/03/15 00:32:27;;;;;;;5.10;4.60;;;;;;;3.33;100.00;95990.56;4985926;28;20077;-51
2021/03/15 00:34:55;;;;;;;4.80;4.38;;;;;;;3.36;100.00;95999.94;5038790;28;20551;-60
2021/03/15 00:37:23;;;;;;;5.72;5.05;;;;;;;3.35;100.00;95995.69;4985405;28;20065;-58
2021/03/15 00:39:51;;;;;;;5.28;4.78;;;;;;;3.36;100.00;95997.34;5039897;28;20063;-57
2021/03/15 00:42:19;;;;;;;5.07;4.57;;;;;;;3.29;100.00;95989.97;4994170;28;20068;-55
2021/03/15 00:44:46;;;;;;;5.40;4.88;;;;;;;3.33;100.00;96003.59;5041225;28;20449;-58
2021/03/15 00:47:14;;;;;;;5.15;4.70;;;;;;;3.42;100.00;95992.50;5000463;28;20434;-58
2021/03/15 00:49:41;;;;;;;5.45;4.95;;;;;;;3.37;100.00;95986.78;5034685;28;20076;-54
2021/03/15 00:52:09;;;;;;;5.25;4.75;;;;;;;3.41;100.00;95992.63;4983648;28;20065;-54
2021/03/15 00:54:37;;;;;;;5.25;4.78;;;;;;;3.27;100.00;95989.25;5028336;28;20064;-57
2021/03/15 00:57:06;;;;;;;5.88;5.32;;;;;;;3.35;100.00;95990.47;4976766;28;20079;-59
2021/03/15 00:59:33;;;;;;;4.65;4.15;;;;;;;3.30;100.00;95981.22;5023675;28;20068;-57
2021/03/15 01:02:01;;;;;;;5.03;4.53;;;;;;;3.32;100.00;96000.16;5002677;28;20064;-58
2021/03/15 01:04:29;;;;;;;5.53;4.60;;;;;;;3.27;100.00;95988.44;5018585;28;20073;-57
2021/03/15 01:06:57;;;;;;;5.07;4.53;;;;;;;3.36;100.00;95995.56;5042181;28;20506;-57
2021/03/15 01:09:24;;;;;;;4.93;4.53;;;;;;;3.33;100.00;95987.97;4993620;28;20064;-57
2021/03/15 01:11:52;;;;;;;5.93;5.32;;;;;;;3.31;100.00;95989.88;5026295;28;20072;-59
2021/03/15 01:14:20;;;;;;;7.75;5.72;;;;;;;3.45;100.00;95986.25;5004412;28;20158;-56
2021/03/15 01:16:48;;;;;;;6.03;5.43;;;;;;;3.36;100.00;95984.31;5034346;28;20057;-58
2021/03/15 01:19:15;;;;;;;5.30;4.80;;;;;;;3.32;100.00;95981.91;4997795;28;20076;-58
2021/03/15 01:21:43;;;;;;;5.95;5.45;;;;;;;3.38;100.00;95991.06;5029948;28;20061;-58
2021/03/15 01:24:11;;;;;;;6.82;6.13;;;;;;;3.31;100.00;95980.25;4977090;28;20081;-58
2021/03/15 01:26:38;;;;;;;5.68;5.18;;;;;;;3.25;100.00;95979.88;5025207;28;20061;-57
2021/03/15 01:29:06;;;;;;;5.93;5.22;;;;;;;3.27;100.00;95984.03;4969250;28;20073;-57
2021/03/15 01:31:34;;;;;;;6.90;6.20;;;;;;;3.31;100.00;95969.84;5035270;28;20421;-55
2021/03/15 01:34:02;;;;;;;6.22;5.60;;;;;;;3.18;100.00;95963.88;4996440;28;20496;-55
2021/03/15 01:36:29;;;;;;;6.53;5.13;;;;;;;3.15;100.00;95968.47;5037794;28;20454;-58
2021/03/15 01:38:57;;;;;;;6.20;5.47;;;;;;;3.18;100.00;95965.63;4993237;28;20080;-56
2021/03/15 01:41:24;;;;;;;6.35;5.75;;;;;;;3.16;100.00;95964.91;5019560;28;20068;-58
2021/03/15 01:43:52;;;;;;;8.32;5.55;;;;;;;3.01;100.00;95970.28;4981835;28;20115;-57
2021/03/15 01:46:19;;;;;;;5.63;5.13;;;;;;;2.98;100.00;95962.69;5038757;28;20068;-57
2021/03/15 01:48:48;;;;;;;7.00;5.40;;;;;;;2.92;100.00;95967.50;5002899;28;20557;-57
2021/03/15 01:51:16;;;;;;;8.30;5.18;;;;;;;2.90;100.00;95962.41;5010913;28;20057;-59
2021/03/15 01:53:44;;;;;;;6.28;5.40;;;;;;;2.89;100.00;95957.31;5027409;28;20072;-59
2021/03/15 01:56:12;;;;;;;6.90;5.68;;;;;;;2.88;100.00;95953.88;4977180;28;20501;-55
2021/03/15 01:58:40;;;;;;;7.53;6.72;;;;;;;2.86;100.00;95958.38;5030860;28;20069;-56
2021/03/15 02:01:08;;;;;;;6.22;5.63;;;;;;;2.69;100.00;95958.75;4985626;28;20228;-57
2021/03/15 02:03:36;;;;;;;7.22;5.95;;;;;;;2.66;100.00;95954.59;5030848;28;20057;-55
2021/03/15 02:06:05;;;;;;;6.47;5.80;;;;;;;2.64;100.00;95955.63;4991708;28;20079;-58
2021/03/15 02:08:32;;;;;;;7.95;6.03;;;;;;;2.52;100.00;95950.34;5045638;28;20064;-55
2021/03/15 02:11:06;;;;;;;6.20;5.22;;;;;;;2.55;100.00;95950.13;4990872;28;20056;-57
2021/03/15 02:13:53;;;;;;;8.15;6.32;;;;;;;2.58;100.00;95949.94;5037774;28;20072;-55
2021/03/15 02:16:25;;;;;;;9.93;6.93;;;;;;;2.56;100.00;95946.59;5001521;28;20479;-58
2021/03/15 02:19:02;;;;;;;7.85;6.50;;;;;;;2.57;100.00;95937.00;5017975;28;20062;-58
2021/03/15 02:22:04;;;;;;;9.20;6.78;;;;;;;2.63;100.00;95941.78;4982971;28;20080;-55
2021/03/15 02:24:39;;;;;;;8.57;7.22;;;;;;;2.48;100.00;95941.09;5019561;28;20069;-57
2021/03/15 02:27:40;;;;;;;8.75;6.00;;;;;;;2.54;100.00;95935.44;4980437;28;20072;-55
2021/03/15 02:30:37;;;;;;;9.73;6.80;;;;;;;2.54;100.00;95924.22;5019184;28;20065;-57
2021/03/15 02:33:26;;;;;;;9.57;6.88;;;;;;;2.53;100.00;95935.56;5018292;28;20643;-57
2021/03/15 02:35:55;;;;;;;7.68;6.88;;;;;;;2.46;100.00;95935.16;4987222;28;20065;-58
2021/03/15 02:38:23;;;;;;;8.23;6.85;;;;;;;2.44;100.00;95936.19;5034064;28;20065;-57
2021/03/15 02:40:56;;;;;;;9.60;6.22;;;;;;;2.43;100.00;95930.16;5033845;28;20080;-57
2021/03/15 02:43:25;;;;;;;9.18;7.47;;;;;;;2.46;100.00;95929.97;5027372;28;20516;-57
2021/03/15 02:45:59;;;;;;;11.68;7.72;;;;;;;2.45;100.00;95930.09;5025062;28;20061;-57
2021/03/15 02:48:28;;;;;;;8.98;7.45;;;;;;;2.52;100.00;95934.75;5001286;28;20068;-57
2021/03/15 02:50:57;;;;;;;8.63;6.88;;;;;;;2.43;100.00;95932.78;5023595;28;20072;-57
2021/03/15 02:53:25;;;;;;;7.35;6.43;;;;;;;2.32;100.00;95927.50;4994282;28;20061;-53
2021/03/15 02:55:56;;;;;;;7.65;6.85;;;;;;;2.34;100.00;95931.66;5032208;28;20072;-55
2021/03/15 02:58:24;;;;;;;8.02;7.22;;;;;;;2.40;100.00;95938.19;4978866;28;20446;-59
2021/03/15 03:00:51;;;;;;;6.40;5.80;;;;;;;2.40;100.00;95937.38;5021258;28;20057;-54
2021/03/15 03:03:21;;;;;;;8.40;7.25;;;;;;;2.52;100.00;95926.94;4965136;28;20072;-55
2021/03/15 03:05:50;;;;;;;8.60;6.72;;;;;;;2.54;100.00;95934.63;5034041;28;20077;-58
2021/03/15 03:08:19;;;;;;;8.90;7.50;;;;;;;2.56;100.00;95936.19;4993618;28;20060;-58
2021/03/15 03:10:49;;;;;;;8.88;6.82;;;;;;;2.58;100.00;95934.31;5017215;28;20076;-58
2021/03/15 03:13:16;;;;;;;10.18;6.90;;;;;;;2.69;100.00;95932.72;4990360;28;20084;-59
2021/03/15 03:15:45;;;;;;;7.95;5.78;;;;;;;2.59;100.00;95937.75;5028949;28;20065;-58
2021/03/15 03:18:14;;;;;;;7.30;6.57;;;;;;;2.58;100.00;95923.91;4992353;28;20076;-58
2021/03/15 03:20:42;;;;;;;9.75;6.57;;;;;;;2.62;100.00;95927.13;5019798;28;20075;-58
2021/03/15 03:23:11;;;;;;;7.43;6.07;;;;;;;2.56;100.00;95930.16;4974600;28;20068;-57
2021/03/15 03:25:40;;;;;;;9.10;5.43;;;;;;;2.64;100.00;95932.19;5028202;28;20524;-58
2021/03/15 03:28:09;;;;;;;8.02;6.07;;;;;;;2.73;100.00;95923.75;4987925;28;20077;-59
2021/03/15 03:30:39;;;;;;;8.98;6.28;;;;;;;2.87;100.00;95927.97;5021401;28;20069;-56
2021/03/15 03:33:07;;;;;;;;;;;;;;;2.80;100.00;95925.78;4990571;28;20061;-58
2021/03/15 03:35:34;;;;;;;7.82;5.88;;;;;;;2.89;100.00;95920.84;5007780;28;19960;-56
2021/03/15 03:38:02;;;;;;;8.25;6.88;;;;;;;2.95;100.00;95917.81;5024202;28;20073;-57
2021/03/15 03:40:30;;;;;;;7.30;5.53;;;;;;;2.85;100.00;95909.81;5013668;28;20073;-57
2021/03/15 03:42:58;;;;;;;8.77;6.47;;;;;;;3.02;100.00;95906.81;5027804;28;20087;-57
2021/03/15 03:45:26;;;;;;;6.85;5.80;;;;;;;2.92;100.00;95905.00;4994923;28;20053;-57
2021/03/15 03:48:11;;;;;;;6.47;5.57;;;;;;;2.94;100.00;95908.34;5020753;28;20068;-58
2021/03/15 03:50:40;;;;;;;6.13;4.78;;;;;;;3.04;100.00;95904.94;4986835;28;20542;-58
2021/03/15 03:53:10;;;;;;;6.40;5.78;;;;;;;3.14;100.00;95906.91;5023280;28;20086;-59
2021/03/15 03:55:42;;;;;;;5.75;5.15;;;;;;;3.04;100.00;95904.94;4989804;28;20434;-58
2021/03/15 03:58:13;;;;;;;6.72;5.47;;;;;;;3.04;100.00;95899.75;5028120;28;20540;-58
2021/03/15 04:00:41;;;;;;;5.43;4.22;;;;;;;2.95;100.00;95899.56;4969160;28;20852;-57
2021/03/15 04:03:15;;;;;;;3.92;3.60;;;;;;;2.98;100.00;95915.81;5011674;28;20336;-57
2021/03/15 04:05:49;;;;;;;5.07;4.57;;;;;;;2.69;100.00;95910.13;4986150;28;20072;-58
2021/03/15 04:08:21;;;;;;;5.13;4.60;;;;;;;2.67;100.00;95912.00;5017836;28;20454;-56
2021/03/15 04:10:49;;;;;;;6.65;5.95;;;;;;;2.52;100.00;95910.50;4993316;28;20068;-55
2021/03/15 04:13:20;;;;;;;9.23;5.80;;;;;;;2.52;100.00;95913.09;5021612;28;20061;-57
2021/03/15 04:15:48;;;;;;;8.95;6.10;;;;;;;2.41;100.00;95915.59;4995899;28;20554;-57
2021/03/15 04:18:19;;;;;;;6.78;6.07;;;;;;;2.48;100.00;95916.81;5018533;28;20463;-56
2021/03/15 04:20:49;;;;;;;7.53;6.47;;;;;;;2.46;100.00;95914.34;4981810;28;20481;-57
2021/03/15 04:23:19;;;;;;;6.85;6.03;;;;;;;2.30;100.00;95918.97;5016068;28;20072;-55
2021/03/15 04:25:48;;;;;;;11.75;6.00;;;;;;;2.19;100.00;95922.31;4983335;28;20083;-57
2021/03/15 04:28:18;;;;;;;8.02;6.25;;;;;;;2.06;100.00;95916.28;5025558;28;20057;-57
2021/03/15 04:30:46;;;;;;;6.82;6.13;;;;;;;2.12;100.00;95919.31;4986589;28;20069;-57
2021/03/15 04:33:14;;;;;;;9.48;6.10;;;;;;;2.07;100.00;95913.59;5025248;28;20069;-52
2021/03/15 04:35:43;;;;;;;8.00;6.88;;;;;;;2.30;100.00;95908.56;4995258;28;20453;-55
2021/03/15 04:38:11;;;;;;;9.00;6.30;;;;;;;2.26;100.00;95907.09;5026855;28;20061;-56
2021/03/15 04:40:41;;;;;;;8.60;6.57;;;;;;;2.30;100.00;95906.78;4990003;28;20061;-55
2021/03/15 04:43:09;;;;;;;7.50;6.70;;;;;;;2.36;100.00;95902.94;5027830;28;20142;-54
2021/03/15 04:45:43;;;;;;;7.95;6.70;;;;;;;2.35;100.00;95912.50;5023123;28;20092;-52
2021/03/15 04:48:15;;;;;;;9.10;6.50;;;;;;;2.37;100.00;95904.56;5017816;28;20476;-55
2021/03/15 04:50:44;;;;;;;8.02;6.80;;;;;;;2.30;100.00;95905.94;5024438;28;20057;-54
2021/03/15 04:53:13;;;;;;;7.88;6.35;;;;;;;2.36;100.00;95905.53;4981793;28;20076;-58
2021/03/15 04:55:40;;;;;;;7.25;5.88;;;;;;;2.35;100.00;95901.28;5029876;28;20069;-57
2021/03/15 04:58:10;;;;;;;5.85;5.25;;;;;;;2.28;100.00;95895.66;4982721;28;20050;-57
2021/03/15 05:00:40;;;;;;;7.35;6.18;;;;;;;2.37;100.00;95889.81;5026700;28;20070;-53
2021/03/15 05:03:09;;;;;;;7.32;6.38;;;;;;;2.38;100.00;95894.06;4982375;28;20156;-54
2021/03/15 05:05:38;;;;;;;9.00;6.95;;;;;;;2.65;100.00;95894.81;5027528;28;20033;-55
2021/03/15 05:08:07;;;;;;;7.32;6.25;;;;;;;2.57;100.00;95890.97;4975576;28;20077;-56
2021/03/15 05:10:35;;;;;;;8.02;7.22;;;;;;;2.55;100.00;95892.88;5009506;28;20076;-54
2021/03/15 05:13:05;;;;;;;6.70;6.00;;;;;;;2.46;100.00;95888.31;4995503;28;20072;-57
2021/03/15 05:15:33;;;;;;;9.13;6.90;;;;;;;2.65;100.00;95887.00;5022689;28;20069;-54
2021/03/15 05:18:01;;;;;;;10.10;6.82;;;;;;;2.74;100.00;95891.56;5001348;28;20068;-58
2021/03/15 05:20:30;;;;;;;8.55;7.03;;;;;;;2.82;100.00;95878.81;5022856;28;20105;-56
2021/03/15 05:22:59;;;;;;;9.80;7.18;;;;;;;2.93;100.00;95873.66;4990230;28;20107;-55
2021/03/15 05:25:26;;;;;;;8.68;7.05;;;;;;;2.71;100.00;95879.59;5025885;28;20474;-57
2021/03/15 05:27:54;;;;;;;8.75;7.20;;;;;;;2.83;100.00;95873.50;4995286;28;20109;-57
2021/03/15 05:30:22;;;;;;;9.57;6.82;;;;;;;2.84;100.00;95874.31;5023835;28;20072;-54
2021/03/15 05:32:51;;;;;;;8.93;6.90;;;;;;;2.80;100.00;95872.91;4989565;28;21504;-55
2021/03/15 05:35:20;;;;;;;7.68;6.22;;;;;;;2.71;100.00;95874.38;5027806;28;20148;-55
2021/03/15 05:37:48;;;;;;;8.93;6.35;;;;;;;2.77;100.00;95865.31;5008429;28;20077;-57
2021/03/15 05:40:17;;;;;;;9.70;7.45;;;;;;;2.76;100.00;95871.47;5034311;28;20075;-57
2021/03/15 05:42:50;;;;;;;7.78;6.40;;;;;;;2.73;100.00;95871.69;5014272;28;20064;-59
2021/03/15 05:45:26;;;;;;;7.82;6.57;;;;;;;2.80;100.00;95860.69;4969636;28;20546;-55
2021/03/15 05:48:29;;;;;;;8.07;6.65;;;;;;;2.72;100.00;95856.97;5022591;28;20482;-56
2021/03/15 05:51:33;;;;;;;69.57;47.72;;;;;;;2.84;100.00;95851.72;5022298;28;20072;-56
2021/03/15 05:54:30;;;;;;;7.47;6.72;;;;;;;2.89;100.00;95860.97;4998309;28;20072;-57
2021/03/15 06:00:16;;;;;;;6.65;5.72;;;;;;;2.99;100.00;95846.31;4921532;28;20046;-55
2021/03/15 06:03:01;;;;;;;7.78;6.15;;;;;;;2.87;100.00;95839.44;4961622;28;20172;-58
2021/03/15 06:05:29;;;;;;;5.72;5.05;;;;;;;2.82;100.00;95839.75;4928850;28;20066;-59
2021/03/15 06:08:03;;;;;;;7.38;5.75;;;;;;;2.90;100.00;95850.44;4974275;28;20093;-52
2021/03/15 06:10:52;;;;;;;5.90;5.40;;;;;;;2.94;100.00;95846.66;4955128;28;20096;-57
2021/03/15 06:13:20;;;;;;;6.88;6.18;;;;;;;3.06;100.00;95840.56;4982925;28;20066;-60
2021/03/15 06:15:48;;;;;;;7.28;5.68;;;;;;;3.19;100.00;95840.47;4953229;28;20078;-59
2021/03/15 06:18:17;;;;;;;6.20;5.45;;;;;;;3.06;100.00;95839.72;4985147;28;20066;-59
2021/03/15 06:20:45;;;;;;;6.55;5.47;;;;;;;3.28;100.00;95834.56;4950817;28;20070;-59
2021/03/15 06:23:15;;;;;;;6.50;5.72;;;;;;;3.24;100.00;95827.13;4975017;28;20081;-52
2021/03/15 06:25:45;;;;;;;5.72;5.13;;;;;;;3.29;100.00;95830.19;4948210;28;20093;-59
2021/03/15 06:28:12;;;;;;;6.10;5.50;;;;;;;3.41;100.00;95828.44;4986554;28;20523;-60
2021/03/15 06:30:39;;;;;;;6.00;4.63;;;;;;;3.15;100.00;95820.81;4942077;28;20324;-55
2021/03/15 06:33:08;;;;;;;5.95;5.30;;;;;;;3.45;100.00;95822.88;4986099;28;20069;-58
2021/03/15 06:35:38;;;;;;;6.85;5.13;;;;;;;3.60;100.00;95826.09;4946758;28;20042;-56
2021/03/15 06:38:06;;;;;;;6.63;5.78;;;;;;;3.72;100.00;95824.31;4986994;28;20085;-58
2021/03/15 06:40:48;;;;;;;5.03;4.45;;;;;;;3.69;100.00;95821.94;4953548;28;20154;-60
2021/03/15 06:43:34;;;;;;;7.25;4.90;;;;;;;3.87;100.00;95809.25;4985083;28;20070;-59
2021/03/15 06:46:02;;;;;;;5.45;4.93;;;;;;;3.69;100.00;95814.13;4958212;28;20088;-57
2021/03/15 06:48:30;;;;;;;5.82;5.22;;;;;;;3.85;100.00;95811.97;4985193;28;20076;-60
2021/03/15 06:50:58;;;;;;;7.00;5.35;;;;;;;3.77;100.00;95812.56;4948442;28;22356;-60
2021/03/15 06:53:36;;;;;;;7.05;5.18;;;;;;;4.04;100.00;95814.00;4985746;28;20547;-58
2021/03/15 06:56:10;;;;;;;12.18;6.80;;;;;;;4.09;100.00;95803.19;4950606;28;21044;-58
2021/03/15 06:58:47;;;;;;;5.85;3.90;;;;;;;3.93;100.00;95807.00;4984257;28;20069;-59
2021/03/15 07:01:17;;;;;;;4.50;4.10;;;;;;;4.36;100.00;95813.22;4939083;28;24869;-60
2021/03/15 07:03:46;;;;;;;4.63;3.85;;;;;;;4.43;100.00;95799.53;4984242;28;20058;-57
2021/03/15 07:06:15;;;;;;;4.53;4.10;;;;;;;4.69;100.00;95799.22;4958879;28;20481;-59
2021/03/15 07:08:43;;;;;;;5.03;4.40;;;;;;;4.60;100.00;95795.56;4984447;28;20062;-56
2021/03/15 07:11:28;;;;;;;5.05;4.00;;;;;;;4.57;100.00;95802.81;4956879;28;20085;-58
2021/03/15 07:13:55;;;;;;;4.40;4.00;;;;;;;4.63;100.00;95802.34;4989580;28;20532;-58
2021/03/15 07:16:28;;;;;;;5.73;4.17;;;;;;;4.67;100.00;95808.97;4979862;28;20173;-58
2021/03/15 07:18:57;;;;;;;5.53;3.28;;;;;;;4.50;100.00;95805.94;4956604;28;20402;-57
2021/03/15 07:21:37;;;;;;;4.90;3.90;;;;;;;4.72;100.00;95802.44;4967557;28;20423;-58
2021/03/15 07:24:09;;;;;;;3.50;3.20;;;;;;;4.90;100.00;95801.88;4927801;28;20121;-60
2021/03/15 07:26:43;;;;;;;7.03;3.55;;;;;;;4.97;100.00;95800.41;4985397;28;20057;-60
2021/03/15 07:29:13;;;;;;;5.50;3.17;;;;;;;4.73;100.00;95795.41;4924087;28;20084;-58
2021/03/15 07:31:44;;;;;;;4.35;3.78;;;;;;;4.74;100.00;95802.28;4986652;28;20537;-60
2021/03/15 07:34:18;;;;;;;5.40;3.40;;;;;;;5.04;100.00;95803.34;4925479;28;20058;-58
2021/03/15 07:36:54;;;;;;;5.28;3.72;;;;;;;4.85;100.00;95799.66;4950576;28;20085;-58
2021/03/15 07:39:24;;;;;;;6.10;3.90;;;;;;;5.26;100.00;95794.53;4949677;28;20435;-59
2021/03/15 07:41:53;;;;;;;2.95;2.63;;;;;;;4.85;100.00;95778.75;4960112;28;20120;-58
2021/03/15 07:44:26;;;;;;;3.70;3.30;;;;;;;4.86;100.00;95790.84;4951934;28;20073;-59
2021/03/15 07:46:54;;;;;;;5.05;3.45;;;;;;;4.85;100.00;95790.97;4990895;28;20058;-59
2021/03/15 07:49:24;;;;;;;3.58;2.83;;;;;;;4.78;100.00;95787.19;4961536;28;20073;-60
2021/03/15 07:51:52;;;;;;;4.20;2.78;;;;;;;4.93;100.00;95791.19;4989996;28;20082;-59
2021/03/15 07:54:27;;;;;;;3.58;3.03;;;;;;;5.11;100.00;95791.44;4946782;28;20466;-59
2021/03/15 07:57:21;;;;;;;3.55;2.75;;;;;;;5.22;100.00;95789.56;4988923;28;20054;-59
2021/03/15 07:59:50;;;;;;;3.20;2.85;;;;;;;5.07;100.00;95785.63;4947305;28;20062;-60
2021/03/15 08:02:19;;;;;;;3.70;2.85;;;;;;;5.50;100.00;95778.56;4991516;28;20042;-60
2021/03/15 08:04:48;;;;;;;4.05;3.03;;;;;;;5.40;100.00;95795.06;4951912;28;20080;-60
2021/03/15 08:07:17;;;;;;;4.38;2.80;;;;;;;4.99;100.00;95780.22;4992160;28;20077;-59
2021/03/15 08:09:46;;;;;;;2.55;2.35;;;;;;;5.08;100.00;95789.91;4952240;28;20058;-61
2021/03/15 08:12:16;;;;;;;4.30;2.63;;;;;;;5.17;100.00;95776.06;4998235;28;20123;-58
2021/03/15 08:14:46;;;;;;;5.78;2.70;;;;;;;5.15;100.00;95788.44;4955777;28;20143;-61
2021/03/15 08:17:18;;;;;;;2.45;2.22;;;;;;;5.10;100.00;95789.78;4982044;28;20532;-61
2021/03/15 08:19:47;;;;;;;4.25;2.72;;;;;;;5.37;100.00;95781.44;4937937;28;20065;-59
2021/03/15 08:22:21;;;;;;;3.50;2.40;;;;;;;5.51;100.00;95772.41;4987956;28;20061;-59
2021/03/15 08:24:49;;;;;;;2.85;2.45;;;;;;;6.01;100.00;95764.63;4952319;28;20065;-60
2021/03/15 08:27:18;;;;;;;4.90;2.10;;;;;;;5.37;100.00;95765.75;4989925;28;20579;-59
2021/03/15 08:29:47;;;;;;;3.13;2.28;;;;;;;5.91;100.00;95759.34;4931801;28;20105;-59
2021/03/15 08:32:15;;;;;;;3.10;2.25;;;;;;;5.94;100.00;95748.63;4988938;28;20457;-58
2021/03/15 08:34:43;;;;;;;2.90;2.40;;;;;;;6.10;100.00;95764.66;4956584;28;20510;-58
2021/03/15 08:37:11;;;;;;;4.53;2.50;;;;;;;6.37;100.00;95753.56;4990899;28;20073;-60
2021/03/15 08:39:43;;;;;;;3.53;2.30;;;;;;;5.96;100.00;95745.91;4972736;28;20042;-60
2021/03/15 08:42:24;;;;;;;4.47;2.42;;;;;;;6.24;100.00;95750.34;4983356;28;20069;-56
2021/03/15 08:45:27;;;;;;;2.10;1.90;;;;;;;6.20;100.00;95743.75;4954869;28;20051;-58
2021/03/15 08:48:14;;;;;;;4.38;2.67;;;;;;;6.59;100.00;95739.34;4980481;28;20062;-60
2021/03/15 08:50:44;;;;;;;2.70;2.47;;;;;;;6.87;100.00;95729.81;4946413;28;20536;-59
2021/03/15 08:53:12;;;;;;;2.97;2.58;;;;;;;6.94;100.00;95714.38;4987058;28;20073;-59
2021/03/15 08:55:49;;;;;;;5.65;2.90;;;;;;;6.59;100.00;95726.25;4950969;28;20172;-57
2021/03/15 08:58:40;;;;;;;2.78;2.40;;;;;;;6.62;100.00;95727.78;4969743;28;20069;-60
2021/03/15 09:01:09;;;;;;;4.15;2.65;;;;;;;6.79;100.00;95718.41;4933747;28;20074;-61
2021/03/15 09:03:51;;;;;;;3.17;2.60;;;;;;;6.55;100.00;95718.81;4969717;28;20038;-59
2021/03/15 09:06:46;;;;;;;2.70;2.35;;;;;;;6.36;100.00;95711.78;4943963;28;20062;-58
2021/03/15 09:09:15;;;;;;;3.25;2.70;;;;;;;6.08;100.00;95703.75;4988478;28;20093;-57
2021/03/15 09:11:49;;;;;;;2.95;2.60;;;;;;;5.97;100.00;95708.28;4952844;28;20370;-59
2021/03/15 09:14:32;;;;;;;3.67;2.60;;;;;;;6.13;100.00;95704.19;4969157;28;20073;-56
2021/03/15 09:17:02;;;;;;;4.13;2.80;;;;;;;6.30;100.00;95699.25;4954226;28;20085;-57
2021/03/15 09:19:33;;;;;;;3.45;2.83;;;;;;;6.06;100.00;95699.66;4973597;28;20831;-56
2021/03/15 09:22:01;;;;;;;;;;;;;;;6.24;100.00;95699.78;4948283;28;20066;-56
2021/03/15 09:24:46;;;;;;;3.60;2.80;;;;;;;6.11;100.00;95690.41;4959753;28;19973;-59
2021/03/15 09:27:32;;;;;;;3.03;2.70;;;;;;;6.00;100.00;95689.72;4953007;28;20062;-60
2021/03/15 09:30:04;;;;;;;3.20;2.90;;;;;;;5.78;100.00;95693.34;4987808;28;20489;-60
2021/03/15 09:32:33;;;;;;;3.22;2.88;;;;;;;5.71;100.00;95696.50;4945072;28;20550;-61
2021/03/15 09:35:13;;;;;;;3.58;2.67;;;;;;;5.83;100.00;95696.38;4987842;28;20492;-59
2021/03/15 09:37:41;;;;;;;2.65;2.45;;;;;;;5.24;100.00;95685.72;4953689;28;20549;-60
2021/03/15 09:40:12;;;;;;;4.07;2.80;;;;;;;5.73;100.00;95683.28;4988176;28;20080;-58
2021/03/15 09:42:40;;;;;;;3.08;2.60;;;;;;;5.74;100.00;95678.88;4950122;28;20066;-62
2021/03/15 09:45:11;;;;;;;2.40;2.22;;;;;;;5.77;100.00;95673.38;4988260;28;20070;-57
2021/03/15 09:47:39;;;;;;;2.20;2.10;;;;;;;5.48;100.00;95664.50;4949488;28;20511;-60
2021/03/15 09:50:17;;;;;;;2.58;2.38;;;;;;;5.75;100.00;95667.44;4986248;28;20119;-60
2021/03/15 09:52:44;;;;;;;2.45;2.25;;;;;;;5.83;100.00;95667.63;4951017;28;20085;-58
2021/03/15 09:55:12;;;;;;;2.53;2.30;;;;;;;5.74;100.00;95674.47;4985899;28;20069;-60
2021/03/15 09:57:40;;;;;;;3.33;2.60;;;;;;;5.62;100.00;95676.38;4969071;28;20066;-60
2021/03/15 10:00:13;;;;;;;2.38;2.17;;;;;;;5.70;100.00;95657.38;4947457;28;20078;-60
2021/03/15 10:02:41;;;;;;;2.63;2.40;;;;;;;5.66;100.00;95669.91;4987111;28;20068;-59
2021/03/15 10:05:09;;;;;;;2.58;2.28;;;;;;;5.87;100.00;95651.50;4944647;28;20553;-60
2021/03/15 10:07:41;;;;;;;2.40;2.22;;;;;;;6.09;100.00;95663.56;4981609;28;20078;-60
2021/03/15 10:10:10;;;;;;;2.30;2.10;;;;;;;5.72;100.00;95642.41;4949721;28;20096;-58
2021/03/15 10:12:38;;;;;;;2.30;2.20;;;;;;;5.83;100.00;95665.00;4987789;28;20065;-61
2021/03/15 10:15:07;;;;;;;2.10;2.00;;;;;;;5.86;100.00;95659.50;4944712;28;20072;-55
2021/03/15 10:17:35;;;;;;;2.25;2.15;;;;;;;5.53;100.00;95658.84;4986845;28;20073;-58
2021/03/15 10:20:05;;;;;;;2.42;2.20;;;;;;;5.35;100.00;95661.28;4947449;28;20077;-59
2021/03/15 10:22:34;;;;;;;2.38;2.22;;;;;;;5.37;100.00;95658.56;4982011;28;20093;-56
2021/03/15 10:25:03;;;;;;;2.22;2.13;;;;;;;5.39;100.00;95667.06;4952451;28;20666;-60
2021/03/15 10:27:31;;;;;;;2.10;1.90;;;;;;;5.33;100.00;95671.03;4979879;28;20074;-58
2021/03/15 10:30:04;;;;;;;2.00;1.90;;;;;;;5.32;100.00;95652.88;4955261;28;20066;-56
2021/03/15 10:32:32;;;;;;;2.00;1.90;;;;;;;5.56;100.00;95658.59;4969908;28;20069;-59
2021/03/15 10:35:04;;;;;;;2.20;2.10;;;;;;;6.01;100.00;95654.72;4951426;28;20066;-60
2021/03/15 10:37:32;;;;;;;2.38;2.17;;;;;;;6.49;100.00;95644.25;4985459;28;20145;-59
2021/03/15 10:40:01;;;;;;;2.10;1.92;;;;;;;6.33;100.00;95634.34;4943858;28;20066;-58
2021/03/15 10:42:30;;;;;;;1.90;1.80;;;;;;;6.02;100.00;95643.28;4963463;28;20518;-60
2021/03/15 10:44:57;;;;;;;2.10;2.00;;;;;;;6.37;100.00;95635.72;4931131;28;22661;-60
2021/03/15 10:47:29;;;;;;;2.13;1.92;;;;;;;6.56;100.00;95634.03;4967793;28;20057;-60
2021/03/15 10:49:58;;;;;;;1.80;1.70;;;;;;;6.57;100.00;95635.69;4940880;28;20068;-60
2021/03/15 10:52:29;;;;;;;1.90;1.80;;;;;;;6.16;100.00;95622.78;4971718;28;20069;-60
2021/03/15 10:55:12;;;;;;;1.60;1.50;;;;;;;6.50;100.00;95624.09;4990630;28;20065;-59
2021/03/15 10:58:04;;;;;;;1.75;1.65;;;;;;;6.36;100.00;95623.56;4984634;28;20430;-59
2021/03/15 11:00:33;;;;;;;3.15;1.95;;;;;;;6.36;100.00;95614.91;4948531;28;22849;-58
2021/03/15 11:03:01;;;;;;;2.00;1.83;;;;;;;6.36;100.00;95626.19;4985010;28;20510;-60
2021/03/15 11:05:29;;;;;;;1.73;1.63;;;;;;;6.28;100.00;95610.38;4932521;28;20065;-59
2021/03/15 11:07:58;;;;;;;1.70;1.60;;;;;;;6.04;100.00;95605.53;4978363;28;20082;-59
2021/03/15 11:10:27;;;;;;;1.80;1.70;;;;;;;5.88;100.00;95600.84;4984836;28;20408;-57
2021/03/15 11:12:56;;;;;;;1.90;1.80;;;;;;;5.63;100.00;95610.03;4943062;28;20078;-57
2021/03/15 11:15:32;;;;;;;1.90;1.80;;;;;;;5.66;100.00;95614.97;4986168;28;20105;-58
2021/03/15 11:18:09;;;;;;;1.80;1.70;;;;;;;5.55;100.00;95612.50;4945273;28;20084;-56
2021/03/15 11:20:48;;;;;;;1.70;1.60;;;;;;;5.57;100.00;95602.72;4985262;28;20549;-59
2021/03/15 11:23:31;;;;;;;3.25;1.80;;;;;;;5.54;100.00;95615.22;4938098;28;20065;-57
2021/03/15 11:26:02;;;;;;;1.95;1.85;;;;;;;5.86;100.00;95613.22;4978097;28;20514;-62
2021/03/15 11:28:32;;;;;;;2.00;1.90;;;;;;;5.67;100.00;95598.31;4946214;28;20467;-60
2021/03/15 11:31:01;;;;;;;2.00;1.90;;;;;;;5.92;100.00;95598.78;4983981;28;20066;-58
2021/03/15 11:33:29;;;;;;;2.17;2.00;;;;;;;6.42;100.00;95607.31;4953544;28;20439;-59
2021/03/15 11:36:01;;;;;;;2.17;2.00;;;;;;;5.88;100.00;95607.84;4965759;28;20070;-59
2021/03/15 11:38:29;;;;;;;2.10;2.00;;;;;;;5.83;100.00;95608.25;4943727;28;20075;-56
2021/03/15 11:40:57;;;;;;;2.00;1.90;;;;;;;5.86;100.00;95613.22;4962810;28;20069;-60
2021/03/15 11:43:25;;;;;;;2.30;2.10;;;;;;;5.45;100.00;95588.94;4942151;28;20605;-60
2021/03/15 11:45:52;;;;;;;1.90;1.80;;;;;;;5.72;100.00;95598.75;4986473;28;20083;-60
2021/03/15 11:48:20;;;;;;;1.90;1.80;;;;;;;5.84;100.00;95601.22;4937311;28;20423;-58
2021/03/15 11:50:48;;;;;;;2.35;2.15;;;;;;;5.83;100.00;95607.44;4966162;28;20054;-59
2021/03/15 11:53:16;;;;;;;2.13;1.90;;;;;;;5.78;100.00;95601.78;4937147;28;20101;-59
2021/03/15 11:55:44;;;;;;;2.10;2.00;;;;;;;5.54;100.00;95600.38;4987353;28;20074;-60